createdAt,value
2022-08-02T00:00:35.143Z,101785.50
2022-08-02T00:03:03.274Z,101788.69
2022-08-02T00:05:31.331Z,101785.59
2022-08-02T00:08:00.880Z,101789.75
2022-08-02T00:10:29.134Z,101783.63
2022-08-02T00:12:59.011Z,101786.47
2022-08-02T00:15:27.605Z,101780.63
2022-08-02T00:17:55.668Z,101783.66
2022-08-02T00:20:23.826Z,101778.47
2022-08-02T00:22:51.866Z,101780.31
2022-08-02T00:25:21.528Z,101778.44
2022-08-02T00:27:49.630Z,101786.56
2022-08-02T00:30:17.636Z,101785.63
2022-08-02T00:32:45.782Z,101782.16
2022-08-02T00:35:13.846Z,101788.81
2022-08-02T00:37:42.301Z,101790.22
2022-08-02T00:40:12.304Z,101784.81
2022-08-02T00:42:42.166Z,101788.50
2022-08-02T00:45:10.997Z,101781.19
2022-08-02T00:47:39.002Z,101780.84
2022-08-02T00:50:07.723Z,101774.69
2022-08-02T00:52:35.765Z,101769.84
2022-08-02T00:55:03.992Z,101768.47
2022-08-02T00:57:32.113Z,101770.16
2022-08-02T01:00:01.540Z,101770.91
2022-08-02T01:02:29.956Z,101771.31
2022-08-02T01:04:58.176Z,101764.78
2022-08-02T01:07:26.298Z,101769.59
2022-08-02T01:09:54.715Z,101767.06
2022-08-02T01:12:22.769Z,101768.22
2022-08-02T01:14:53.166Z,101776.72
2022-08-02T01:17:33.561Z,101777.00
2022-08-02T01:20:09.834Z,101770.16
2022-08-02T01:23:03.044Z,101772.56
2022-08-02T01:25:54.855Z,101764.56
2022-08-02T01:28:42.349Z,101765.50
2022-08-02T01:31:16.762Z,101756.94
2022-08-02T01:33:49.916Z,101757.78
2022-08-02T01:36:21.365Z,101762.00
2022-08-02T01:38:51.385Z,101758.53
2022-08-02T01:41:22.754Z,101753.63
2022-08-02T01:43:56.666Z,101744.19
2022-08-02T01:46:26.699Z,101737.41
2022-08-02T01:48:57.453Z,101743.34
2022-08-02T01:51:41.206Z,101734.78
2022-08-02T01:54:12.691Z,101731.88
2022-08-02T01:56:43.742Z,101746.75
2022-08-02T01:59:17.763Z,101734.09
2022-08-02T02:01:49.178Z,101725.72
2022-08-02T02:04:18.632Z,101738.41
2022-08-02T02:06:47.649Z,101739.59
2022-08-02T02:09:16.913Z,101728.53
2022-08-02T02:12:12.116Z,101728.28
2022-08-02T02:14:38.364Z,101721.88
2022-08-02T02:17:08.163Z,101726.31
2022-08-02T02:19:59.126Z,101723.13
2022-08-02T02:22:27.381Z,101728.41
2022-08-02T02:24:56.379Z,101717.44
2022-08-02T02:27:24.969Z,101717.53
2022-08-02T02:29:55.431Z,101716.78
2022-08-02T02:32:27.514Z,101710.06
2022-08-02T02:34:57.042Z,101713.38
2022-08-02T02:37:27.743Z,101700.19
2022-08-02T02:39:57.191Z,101714.44
2022-08-02T02:42:29.435Z,101706.50
2022-08-02T02:45:00.140Z,101710.91
2022-08-02T02:47:41.134Z,101712.81
2022-08-02T02:50:11.482Z,101703.28
2022-08-02T02:52:41.352Z,101701.13
2022-08-02T02:55:10.776Z,101693.09
2022-08-02T02:57:40.062Z,101688.84
2022-08-02T03:00:13.521Z,101683.88
2022-08-02T03:02:44.083Z,101685.28
2022-08-02T03:05:14.130Z,101683.09
2022-08-02T03:07:42.298Z,101676.31
2022-08-02T03:10:11.781Z,101688.13
2022-08-02T03:12:40.091Z,101694.06
2022-08-02T03:15:13.532Z,101699.34
2022-08-02T03:17:43.418Z,101694.34
2022-08-02T03:20:14.202Z,101697.19
2022-08-02T03:22:42.941Z,101700.84
2022-08-02T03:25:12.158Z,101699.34
2022-08-02T03:27:41.061Z,101695.75
2022-08-02T03:30:13.353Z,101693.78
2022-08-02T03:32:45.210Z,101692.94
2022-08-02T03:35:21.276Z,101691.44
2022-08-02T03:37:53.391Z,101698.78
2022-08-02T03:40:22.822Z,101695.19
2022-08-02T03:42:51.535Z,101693.69
2022-08-02T03:45:21.978Z,101673.69
2022-08-02T03:47:51.704Z,101670.56
2022-08-02T03:50:23.014Z,101670.09
2022-08-02T03:52:52.129Z,101676.81
2022-08-02T03:55:20.294Z,101682.63
2022-08-02T03:57:48.534Z,101680.19
2022-08-02T04:00:21.837Z,101677.91
2022-08-02T04:02:50.590Z,101678.38
2022-08-02T04:05:19.462Z,101679.16
2022-08-02T04:08:33.366Z,101678.09
2022-08-02T04:10:58.350Z,101684.59
2022-08-02T04:13:34.466Z,101674.13
2022-08-02T04:16:11.419Z,101667.25
2022-08-02T04:18:44.794Z,101665.00
2022-08-02T04:21:16.158Z,101671.00
2022-08-02T04:23:47.066Z,101666.50
2022-08-02T04:26:15.524Z,101673.47
2022-08-02T04:28:44.668Z,101669.28
2022-08-02T04:31:15.208Z,101665.81
2022-08-02T04:33:43.984Z,101667.56
2022-08-02T04:36:14.265Z,101666.44
2022-08-02T04:38:42.743Z,101673.53
2022-08-02T04:41:10.893Z,101675.84
2022-08-02T04:43:39.002Z,101672.16
2022-08-02T04:46:07.108Z,101679.06
2022-08-02T04:48:36.482Z,101686.72
2022-08-02T04:51:04.828Z,101678.69
2022-08-02T04:53:32.864Z,101682.06
2022-08-02T04:56:00.928Z,101674.78
2022-08-02T04:58:44.307Z,101668.09
2022-08-02T05:01:12.384Z,101666.00
2022-08-02T05:03:41.811Z,101662.72
2022-08-02T05:06:18.753Z,101672.13
2022-08-02T05:08:52.799Z,101671.09
2022-08-02T05:11:22.169Z,101665.81
2022-08-02T05:13:59.089Z,101670.50
2022-08-02T05:16:31.453Z,101672.59
2022-08-02T05:19:02.305Z,101662.03
2022-08-02T05:21:31.428Z,101663.13
2022-08-02T05:23:59.488Z,101665.44
2022-08-02T05:26:27.522Z,101662.69
2022-08-02T05:28:55.557Z,101668.63
2022-08-02T05:31:23.626Z,101666.75
2022-08-02T05:33:51.683Z,101660.50
2022-08-02T05:36:21.659Z,101658.31
2022-08-02T05:38:51.142Z,101664.03
2022-08-02T05:41:19.310Z,101666.13
2022-08-02T05:43:48.034Z,101655.97
2022-08-02T05:46:15.991Z,101651.97
2022-08-02T05:48:45.017Z,101662.03
2022-08-02T05:51:16.666Z,101651.63
2022-08-02T05:53:52.267Z,101648.44
2022-08-02T05:56:26.517Z,101654.03
2022-08-02T05:59:03.848Z,101653.16
2022-08-02T06:01:36.725Z,101648.91
2022-08-02T06:04:08.538Z,101655.09
2022-08-02T06:06:38.366Z,101657.97
2022-08-02T06:09:11.023Z,101660.66
2022-08-02T06:11:41.191Z,101660.72
2022-08-02T06:14:32.152Z,101658.03
2022-08-02T06:17:00.969Z,101665.19
2022-08-02T06:19:36.599Z,101665.09
2022-08-02T06:22:32.329Z,101655.13
2022-08-02T06:25:11.591Z,101659.06
2022-08-02T06:27:59.048Z,101660.13
2022-08-02T06:30:27.887Z,101657.75
2022-08-02T06:32:56.323Z,101651.72
2022-08-02T06:35:26.901Z,101635.50
2022-08-02T06:38:00.387Z,101642.63
2022-08-02T06:40:33.460Z,101638.09
2022-08-02T06:43:14.238Z,101639.16
2022-08-02T06:45:42.321Z,101646.97
2022-08-02T06:48:11.324Z,101649.47
2022-08-02T06:50:41.978Z,101644.03
2022-08-02T06:53:10.946Z,101632.69
2022-08-02T06:55:43.930Z,101630.78
2022-08-02T06:58:13.267Z,101638.63
2022-08-02T07:00:42.001Z,101629.97
2022-08-02T07:03:10.310Z,101623.06
2022-08-02T07:05:38.554Z,101619.75
2022-08-02T07:08:06.655Z,101626.53
2022-08-02T07:10:34.935Z,101624.56
2022-08-02T07:13:04.402Z,101624.72
2022-08-02T07:15:32.523Z,101620.81
2022-08-02T07:18:00.686Z,101625.94
2022-08-02T07:20:28.956Z,101615.91
2022-08-02T07:22:57.342Z,101615.44
2022-08-02T07:25:25.598Z,101610.44
2022-08-02T07:28:23.743Z,101599.78
2022-08-02T07:30:52.994Z,101597.97
2022-08-02T07:33:38.458Z,101601.25
2022-08-02T07:36:09.849Z,101588.13
2022-08-02T07:38:45.603Z,101595.00
2022-08-02T07:41:16.406Z,101595.34
2022-08-02T07:43:45.876Z,101599.94
2022-08-02T07:46:13.980Z,101599.94
2022-08-02T07:48:42.070Z,101580.63
2022-08-02T07:51:13.012Z,101581.72
2022-08-02T07:53:50.591Z,101578.75
2022-08-02T07:56:19.686Z,101586.88
2022-08-02T07:58:52.104Z,101581.06
2022-08-02T08:01:20.291Z,101577.25
2022-08-02T08:03:48.389Z,101584.72
2022-08-02T08:06:16.399Z,101569.97
2022-08-02T08:08:44.531Z,101574.97
2022-08-02T08:11:12.525Z,101572.13
2022-08-02T08:13:40.596Z,101574.78
2022-08-02T08:16:10.017Z,101573.44
2022-08-02T08:18:38.123Z,101569.72
2022-08-02T08:21:06.662Z,101561.13
2022-08-02T08:23:35.451Z,101564.09
2022-08-02T08:26:04.058Z,101565.06
2022-08-02T08:28:32.146Z,101573.88
2022-08-02T08:31:00.265Z,101569.38
2022-08-02T08:33:29.740Z,101566.44
2022-08-02T08:35:58.222Z,101567.31
2022-08-02T08:38:26.249Z,101564.88
2022-08-02T08:40:56.736Z,101559.50
2022-08-02T08:43:24.805Z,101567.69
2022-08-02T08:45:56.182Z,101558.56
2022-08-02T08:48:30.956Z,101550.47
2022-08-02T08:51:08.209Z,101552.50
2022-08-02T08:53:43.456Z,101555.25
2022-08-02T08:56:16.908Z,101550.16
2022-08-02T08:58:45.613Z,101552.16
2022-08-02T09:01:14.370Z,101561.28
2022-08-02T09:03:42.402Z,101556.56
2022-08-02T09:06:11.835Z,101553.22
2022-08-02T09:08:39.854Z,101556.44
2022-08-02T09:11:15.098Z,101554.13
2022-08-02T09:13:51.785Z,101548.94
2022-08-02T09:16:33.532Z,101555.63
2022-08-02T09:19:03.168Z,101553.63
2022-08-02T09:21:39.134Z,101558.28
2022-08-02T09:24:17.830Z,101556.69
2022-08-02T09:26:46.175Z,101556.41
2022-08-02T09:29:15.215Z,101553.81
2022-08-02T09:31:49.721Z,101550.75
2022-08-02T09:34:19.898Z,101558.50
2022-08-02T09:36:54.551Z,101550.41
2022-08-02T09:39:23.908Z,101547.25
2022-08-02T09:41:51.913Z,101546.81
2022-08-02T09:44:20.577Z,101546.44
2022-08-02T09:46:48.614Z,101551.25
2022-08-02T09:49:18.826Z,101543.94
2022-08-02T09:51:53.193Z,101545.25
2022-08-02T09:54:24.285Z,101544.75
2022-08-02T09:56:54.253Z,101553.19
2022-08-02T09:59:25.479Z,101542.56
2022-08-02T10:02:01.190Z,101534.03
2022-08-02T10:04:34.296Z,101535.09
2022-08-02T10:07:12.052Z,101533.66
2022-08-02T10:09:46.438Z,101540.97
2022-08-02T10:12:16.894Z,101546.22
2022-08-02T10:14:46.086Z,101547.03
2022-08-02T10:17:15.002Z,101549.75
2022-08-02T10:20:02.706Z,101548.47
2022-08-02T10:22:34.783Z,101544.50
2022-08-02T10:25:05.339Z,101548.88
2022-08-02T10:27:49.188Z,101549.47
2022-08-02T10:30:25.603Z,101548.84
2022-08-02T10:32:57.869Z,101546.53
2022-08-02T10:35:27.172Z,101537.63
2022-08-02T10:38:01.088Z,101545.66
2022-08-02T10:40:44.511Z,101547.38
2022-08-02T10:43:13.301Z,101539.13
2022-08-02T10:45:41.554Z,101545.19
2022-08-02T10:48:16.229Z,101547.66
2022-08-02T10:50:54.766Z,101542.72
2022-08-02T10:53:29.026Z,101546.19
2022-08-02T10:56:00.399Z,101543.72
2022-08-02T10:58:32.317Z,101537.16
2022-08-02T11:01:05.515Z,101536.09
2022-08-02T11:03:40.746Z,101530.63
2022-08-02T11:06:26.007Z,101532.00
2022-08-02T11:09:32.519Z,101526.22
2022-08-02T11:12:03.459Z,101527.13
2022-08-02T11:14:32.298Z,101528.16
2022-08-02T11:17:11.630Z,101532.28
2022-08-02T11:20:19.231Z,101524.66
2022-08-02T11:22:49.067Z,101516.13
2022-08-02T11:28:25.298Z,101536.28
2022-08-02T11:31:01.608Z,101534.78
2022-08-02T11:33:36.822Z,101536.88
2022-08-02T11:36:07.796Z,101536.00
2022-08-02T11:38:36.059Z,101522.94
2022-08-02T11:41:09.614Z,101525.41
2022-08-02T11:43:39.566Z,101528.13
2022-08-02T11:46:14.663Z,101523.59
2022-08-02T11:48:44.828Z,101526.41
2022-08-02T11:51:14.311Z,101522.78
2022-08-02T11:53:47.158Z,101519.94
2022-08-02T11:56:25.122Z,101514.03
2022-08-02T11:59:07.475Z,101507.09
2022-08-02T12:01:45.697Z,101510.53
2022-08-02T12:04:22.759Z,101510.31
2022-08-02T12:06:59.304Z,101512.16
2022-08-02T12:09:28.499Z,101513.88
2022-08-02T12:11:59.180Z,101513.63
2022-08-02T12:14:29.201Z,101524.16
2022-08-02T12:17:14.958Z,101516.44
2022-08-02T12:19:43.901Z,101514.44
2022-08-02T12:22:17.594Z,101511.75
2022-08-02T12:24:48.559Z,101502.34
2022-08-02T12:27:38.304Z,101490.47
2022-08-02T12:30:10.411Z,101501.06
2022-08-02T12:32:39.018Z,101501.63
2022-08-02T12:35:10.869Z,101497.31
2022-08-02T12:37:40.905Z,101491.38
2022-08-02T12:40:26.500Z,101494.50
2022-08-02T12:42:58.610Z,101504.38
2022-08-02T12:45:40.133Z,101499.63
2022-08-02T12:48:09.576Z,101513.09
2022-08-02T12:50:38.498Z,101501.03
2022-08-02T12:53:09.070Z,101488.56
2022-08-02T12:56:00.807Z,101494.09
2022-08-02T12:58:31.413Z,101482.81
2022-08-02T13:01:01.667Z,101490.53
2022-08-02T13:04:07.798Z,101491.16
2022-08-02T13:09:16.393Z,101483.94
2022-08-02T13:11:44.978Z,101489.03
2022-08-02T13:14:15.473Z,101488.22
2022-08-02T13:16:45.618Z,101477.03
2022-08-02T13:19:15.470Z,101485.75
2022-08-02T13:22:01.263Z,101479.16
2022-08-02T13:24:40.594Z,101475.84
2022-08-02T13:27:20.828Z,101476.78
2022-08-02T13:29:51.237Z,101469.44
2022-08-02T13:32:19.302Z,101474.44
2022-08-02T13:34:47.727Z,101477.47
2022-08-02T13:37:16.048Z,101481.44
2022-08-02T13:39:55.630Z,101485.78
2022-08-02T13:42:33.207Z,101477.25
2022-08-02T13:45:13.076Z,101471.25
2022-08-02T13:48:03.469Z,101472.59
2022-08-02T13:50:30.857Z,101466.81
2022-08-02T13:52:58.851Z,101463.00
2022-08-02T13:55:26.921Z,101458.97
2022-08-02T13:57:55.044Z,101463.81
2022-08-02T14:00:35.267Z,101458.22
2022-08-02T14:03:06.861Z,101455.78
2022-08-02T14:05:39.131Z,101456.16
2022-08-02T14:08:17.161Z,101448.84
2022-08-02T14:10:45.738Z,101440.63
2022-08-02T14:13:13.865Z,101438.78
2022-08-02T14:15:43.982Z,101442.81
2022-08-02T14:18:12.243Z,101430.63
2022-08-02T14:20:40.438Z,101433.91
2022-08-02T14:23:08.586Z,101434.25
2022-08-02T14:25:36.777Z,101427.66
2022-08-02T14:28:05.962Z,101423.38
2022-08-02T14:30:34.018Z,101421.44
2022-08-02T14:33:04.015Z,101417.81
2022-08-02T14:35:32.416Z,101426.00
2022-08-02T14:38:00.524Z,101424.84
2022-08-02T14:40:31.431Z,101411.50
2022-08-02T14:43:00.900Z,101418.09
2022-08-02T14:45:40.393Z,101408.28
2022-08-02T14:48:12.119Z,101411.09
2022-08-02T14:50:40.319Z,101409.53
2022-08-02T14:53:12.589Z,101413.69
2022-08-02T14:55:42.486Z,101400.66
2022-08-02T14:58:10.838Z,101405.66
2022-08-02T15:00:41.152Z,101401.69
2022-08-02T15:03:11.655Z,101398.94
2022-08-02T15:05:40.024Z,101404.13
2022-08-02T15:08:08.486Z,101406.34
2022-08-02T15:10:36.643Z,101406.00
2022-08-02T15:13:04.637Z,101404.72
2022-08-02T15:15:32.809Z,101399.16
2022-08-02T15:18:13.458Z,101388.53
2022-08-02T15:20:42.504Z,101388.16
2022-08-02T15:23:18.848Z,101391.00
2022-08-02T15:25:48.291Z,101383.66
2022-08-02T15:28:16.303Z,101385.97
2022-08-02T15:30:44.393Z,101390.88
2022-08-02T15:33:13.835Z,101382.47
2022-08-02T15:35:41.858Z,101365.78
2022-08-02T15:38:09.884Z,101374.97
2022-08-02T15:40:37.987Z,101378.84
2022-08-02T15:43:05.989Z,101375.22
2022-08-02T15:45:35.468Z,101376.22
2022-08-02T15:48:03.609Z,101369.34
2022-08-02T15:50:33.048Z,101367.69
2022-08-02T15:53:01.116Z,101376.03
2022-08-02T15:55:29.228Z,101368.94
2022-08-02T15:58:08.666Z,101361.00
2022-08-02T16:00:45.119Z,101365.47
2022-08-02T16:03:13.198Z,101362.94
2022-08-02T16:05:42.673Z,101367.38
2022-08-02T16:08:10.954Z,101367.59
2022-08-02T16:10:39.054Z,101367.66
2022-08-02T16:13:24.407Z,101371.25
2022-08-02T16:15:52.510Z,101365.56
2022-08-02T16:18:20.583Z,101360.38
2022-08-02T16:20:49.990Z,101365.84
2022-08-02T16:23:17.990Z,101360.78
2022-08-02T16:25:45.994Z,101362.88
2022-08-02T16:28:16.286Z,101358.06
2022-08-02T16:30:59.271Z,101365.19
2022-08-02T16:33:32.483Z,101358.56
2022-08-02T16:36:01.921Z,101351.47
2022-08-02T16:38:30.090Z,101349.44
2022-08-02T16:41:01.498Z,101344.69
2022-08-02T16:43:29.926Z,101346.59
2022-08-02T16:45:57.934Z,101344.56
2022-08-02T16:48:25.959Z,101343.88
2022-08-02T16:50:54.502Z,101333.94
2022-08-02T16:53:36.682Z,101337.94
2022-08-02T16:56:06.604Z,101332.88
2022-08-02T16:58:34.916Z,101333.44
2022-08-02T17:01:03.086Z,101333.53
2022-08-02T17:03:56.357Z,101336.75
2022-08-02T17:06:19.549Z,101332.94
2022-08-02T17:08:54.175Z,101340.28
2022-08-02T17:11:23.755Z,101332.59
2022-08-02T17:13:52.920Z,101332.94
2022-08-02T17:19:09.009Z,101334.59
2022-08-02T17:21:37.031Z,101341.28
2022-08-02T17:24:08.217Z,101333.41
2022-08-02T17:26:37.733Z,101329.50
2022-08-02T17:29:15.477Z,101334.84
2022-08-02T17:32:05.106Z,101333.22
2022-08-02T17:34:35.146Z,101334.03
2022-08-02T17:37:05.930Z,101328.53
2022-08-02T17:39:44.279Z,101341.28
2022-08-02T17:42:23.827Z,101350.31
2022-08-02T17:44:53.767Z,101341.75
2022-08-02T17:47:22.351Z,101336.94
2022-08-02T17:49:52.751Z,101343.66
2022-08-02T17:52:52.540Z,101330.31
2022-08-02T17:55:14.239Z,101336.41
2022-08-02T17:57:55.786Z,101340.78
2022-08-02T18:00:27.152Z,101340.72
2022-08-02T18:02:55.892Z,101341.47
2022-08-02T18:05:39.831Z,101332.50
2022-08-02T18:08:14.697Z,101343.28
2022-08-02T18:10:46.701Z,101340.47
2022-08-02T18:13:14.894Z,101334.56
2022-08-02T18:15:45.800Z,101338.41
2022-08-02T18:18:14.519Z,101336.00
2022-08-02T18:20:42.857Z,101331.72
2022-08-02T18:23:13.731Z,101331.66
2022-08-02T18:25:45.863Z,101334.78
2022-08-02T18:28:16.411Z,101331.75
2022-08-02T18:30:44.845Z,101331.16
2022-08-02T18:33:58.786Z,101335.19
2022-08-02T18:36:01.247Z,101334.63
2022-08-02T18:38:31.080Z,101333.63
2022-08-02T18:43:51.839Z,101334.13
2022-08-02T18:46:20.131Z,101330.81
2022-08-02T18:48:48.519Z,101334.13
2022-08-02T18:51:18.699Z,101344.16
2022-08-02T18:53:51.325Z,101337.06
2022-08-02T18:56:24.799Z,101344.59
2022-08-02T18:58:55.519Z,101341.06
2022-08-02T19:01:50.935Z,101342.75
2022-08-02T19:04:26.918Z,101340.63
2022-08-02T19:07:06.987Z,101342.91
2022-08-02T19:09:36.492Z,101340.84
2022-08-02T19:12:11.563Z,101329.97
2022-08-02T19:14:41.372Z,101339.09
2022-08-02T19:17:53.530Z,101343.25
2022-08-02T19:19:58.523Z,101332.34
2022-08-02T19:22:27.398Z,101339.84
2022-08-02T19:25:01.241Z,101338.53
2022-08-02T19:27:32.542Z,101341.44
2022-08-02T19:30:03.712Z,101343.44
2022-08-02T19:32:39.846Z,101345.69
2022-08-02T19:35:19.231Z,101351.22
2022-08-02T19:38:06.391Z,101350.88
2022-08-02T19:40:34.635Z,101355.41
2022-08-02T19:44:27.374Z,101359.13
2022-08-02T19:45:53.797Z,101352.41
2022-08-02T19:48:27.142Z,101352.97
2022-08-02T19:51:01.051Z,101359.13
2022-08-02T19:53:46.872Z,101359.91
2022-08-02T19:56:20.615Z,101357.72
2022-08-02T19:58:51.485Z,101368.13
2022-08-02T20:01:28.430Z,101363.66
2022-08-02T20:04:07.543Z,101368.09
2022-08-02T20:06:45.505Z,101364.31
2022-08-02T20:09:16.532Z,101370.38
2022-08-02T20:11:46.125Z,101359.03
2022-08-02T20:14:22.810Z,101366.22
2022-08-02T20:16:57.839Z,101369.13
2022-08-02T20:19:29.155Z,101368.47
2022-08-02T20:21:59.613Z,101365.28
2022-08-02T20:24:29.696Z,101364.56
2022-08-02T20:26:59.250Z,101375.25
2022-08-02T20:32:22.822Z,101373.28
2022-08-02T20:34:52.545Z,101377.44
2022-08-02T20:37:59.800Z,101380.75
2022-08-02T20:40:16.516Z,101387.22
2022-08-02T20:42:48.042Z,101382.59
2022-08-02T20:45:16.887Z,101388.88
2022-08-02T20:47:50.830Z,101381.19
2022-08-02T20:50:36.699Z,101388.84
2022-08-02T20:53:06.433Z,101383.81
2022-08-02T20:55:35.685Z,101390.03
2022-08-02T20:58:05.668Z,101390.28
2022-08-02T21:00:33.819Z,101381.50
2022-08-02T21:03:04.308Z,101389.31
2022-08-02T21:05:54.148Z,101388.94
2022-08-02T21:08:21.762Z,101384.50
2022-08-02T21:10:52.118Z,101381.69
2022-08-02T21:13:24.199Z,101388.31
2022-08-02T21:15:57.760Z,101382.94
2022-08-02T21:18:39.964Z,101391.16
2022-08-02T21:21:09.921Z,101384.25
2022-08-02T21:23:38.279Z,101390.03
2022-08-02T21:26:09.132Z,101386.84
2022-08-02T21:28:44.238Z,101387.53
2022-08-02T21:31:15.477Z,101388.06
2022-08-02T21:33:56.761Z,101380.88
2022-08-02T21:36:31.843Z,101387.31
2022-08-02T21:39:04.413Z,101385.97
2022-08-02T21:41:39.566Z,101387.69
2022-08-02T21:44:16.404Z,101389.75
2022-08-02T21:46:45.743Z,101384.41
2022-08-02T21:49:16.339Z,101385.44
2022-08-02T21:51:49.617Z,101391.84
2022-08-02T21:54:21.229Z,101398.06
2022-08-02T21:56:51.808Z,101386.50
2022-08-02T21:59:26.388Z,101391.38
2022-08-02T22:01:56.893Z,101402.28
2022-08-02T22:04:27.129Z,101395.88
2022-08-02T22:06:55.609Z,101392.53
2022-08-02T22:09:44.685Z,101402.91
2022-08-02T22:12:16.669Z,101397.38
2022-08-02T22:17:53.643Z,101394.06
2022-08-02T22:20:29.111Z,101394.53
2022-08-02T22:22:57.381Z,101396.75
2022-08-02T22:25:36.625Z,101401.94
2022-08-02T22:28:38.502Z,101405.25
2022-08-02T22:30:56.917Z,101408.28
2022-08-02T22:33:46.723Z,101407.59
2022-08-02T22:36:17.352Z,101404.75
2022-08-02T22:38:46.407Z,101409.59
2022-08-02T22:41:15.390Z,101411.59
2022-08-02T22:43:44.138Z,101403.88
2022-08-02T22:46:15.675Z,101408.25
2022-08-02T22:48:45.508Z,101405.50
2022-08-02T22:51:13.990Z,101405.69
2022-08-02T22:53:44.115Z,101410.97
2022-08-02T22:56:15.393Z,101403.97
2022-08-02T22:58:50.584Z,101333.84
2022-08-02T22:58:55.568Z,101369.81
2022-08-02T22:58:59.384Z,101336.97
2022-08-02T22:59:04.405Z,101399.06
2022-08-02T23:01:31.735Z,101411.13
2022-08-02T23:03:59.817Z,101404.22
2022-08-02T23:06:27.806Z,101402.38
2022-08-02T23:08:57.321Z,101410.06
2022-08-02T23:11:25.372Z,101408.03
2022-08-02T23:13:53.427Z,101416.22
2022-08-02T23:16:39.104Z,101413.69
2022-08-02T23:19:24.700Z,101401.97
2022-08-02T23:22:01.661Z,101397.78
2022-08-02T23:24:34.121Z,101400.94
2022-08-02T23:27:02.398Z,101395.88
2022-08-02T23:29:30.443Z,101403.38
2022-08-02T23:31:59.044Z,101403.22
2022-08-02T23:34:27.356Z,101405.75
2022-08-02T23:36:55.482Z,101406.03
2022-08-02T23:39:23.509Z,101401.22
2022-08-02T23:41:54.714Z,101403.09
2022-08-02T23:44:23.990Z,101393.84
2022-08-02T23:46:52.499Z,101394.53
2022-08-02T23:49:20.851Z,101395.28
2022-08-02T23:51:49.402Z,101395.25
2022-08-02T23:54:18.823Z,101391.91
2022-08-02T23:56:47.747Z,101396.22
2022-08-02T23:59:17.292Z,101391.94
